sensor_id;sensor_type;location;lat;lon;timestamp;pressure;altitude;pressure_sealevel;temperature;humidity
43115;BME280;28727;50.068;14.452;2022-12-18T00:00:29;100806.78;;;-5.51;71.92
43115;BME280;28727;50.068;14.452;2022-12-18T00:03:00;100816.97;;;-5.46;71.24
43115;BME280;28727;50.068;14.452;2022-12-18T00:05:32;100820.53;;;-5.52;70.68
43115;BME280;28727;50.068;14.452;2022-12-18T00:08:04;100825.78;;;-5.56;70.74
43115;BME280;28727;50.068;14.452;2022-12-18T00:10:40;100829.34;;;-5.63;70.93
43115;BME280;28727;50.068;14.452;2022-12-18T00:13:12;100830.38;;;-5.72;70.87
43115;BME280;28727;50.068;14.452;2022-12-18T00:15:43;100831.31;;;-5.76;70.87
43115;BME280;28727;50.068;14.452;2022-12-18T00:18:15;100823.63;;;-5.78;71.15
43115;BME280;28727;50.068;14.452;2022-12-18T00:20:51;100827.97;;;-5.81;71.18
43115;BME280;28727;50.068;14.452;2022-12-18T00:23:22;100833.13;;;-5.81;71.85
43115;BME280;28727;50.068;14.452;2022-12-18T00:25:54;100828.91;;;-5.84;71.67
43115;BME280;28727;50.068;14.452;2022-12-18T00:28:26;100837.47;;;-5.83;71.24
43115;BME280;28727;50.068;14.452;2022-12-18T00:31:09;100842.56;;;-5.82;71.46
43115;BME280;28727;50.068;14.452;2022-12-18T00:33:41;100846.84;;;-5.82;70.90
43115;BME280;28727;50.068;14.452;2022-12-18T00:36:19;100850.28;;;-5.82;71.11
43115;BME280;28727;50.068;14.452;2022-12-18T00:38:54;100858.06;;;-5.85;71.21
43115;BME280;28727;50.068;14.452;2022-12-18T00:41:26;100858.16;;;-5.88;71.51
43115;BME280;28727;50.068;14.452;2022-12-18T00:44:17;100872.69;;;-5.87;71.45
43115;BME280;28727;50.068;14.452;2022-12-18T00:46:49;100871.06;;;-5.89;70.99
43115;BME280;28727;50.068;14.452;2022-12-18T00:49:21;100862.50;;;-5.91;70.90
43115;BME280;28727;50.068;14.452;2022-12-18T00:51:53;100864.28;;;-5.95;70.93
43115;BME280;28727;50.068;14.452;2022-12-18T00:54:25;100867.69;;;-5.94;70.67
43115;BME280;28727;50.068;14.452;2022-12-18T00:56:56;100871.13;;;-5.94;70.76
43115;BME280;28727;50.068;14.452;2022-12-18T00:59:28;100879.66;;;-5.92;70.63
43115;BME280;28727;50.068;14.452;2022-12-18T01:02:01;100875.38;;;-5.93;71.06
43115;BME280;28727;50.068;14.452;2022-12-18T01:04:34;100877.97;;;-5.93;70.67
43115;BME280;28727;50.068;14.452;2022-12-18T01:07:08;100878.78;;;-5.91;71.23
43115;BME280;28727;50.068;14.452;2022-12-18T01:09:40;100880.44;;;-5.88;71.10
43115;BME280;28727;50.068;14.452;2022-12-18T01:12:12;100891.50;;;-5.85;72.07
43115;BME280;28727;50.068;14.452;2022-12-18T01:14:43;100882.00;;;-5.81;73.18
43115;BME280;28727;50.068;14.452;2022-12-18T01:17:15;100886.19;;;-5.77;72.92
43115;BME280;28727;50.068;14.452;2022-12-18T01:19:46;100892.13;;;-5.72;73.50
43115;BME280;28727;50.068;14.452;2022-12-18T01:22:18;100892.03;;;-5.67;73.62
43115;BME280;28727;50.068;14.452;2022-12-18T01:24:50;100898.78;;;-5.60;73.87
43115;BME280;28727;50.068;14.452;2022-12-18T01:27:21;100905.56;;;-5.56;74.12
43115;BME280;28727;50.068;14.452;2022-12-18T01:29:55;100898.56;;;-5.50;73.81
43115;BME280;28727;50.068;14.452;2022-12-18T01:32:30;100901.03;;;-5.45;74.18
43115;BME280;28727;50.068;14.452;2022-12-18T01:35:01;100895.84;;;-5.42;74.35
43115;BME280;28727;50.068;14.452;2022-12-18T01:37:33;100901.00;;;-5.44;74.08
43115;BME280;28727;50.068;14.452;2022-12-18T01:40:06;100900.94;;;-5.41;74.22
43115;BME280;28727;50.068;14.452;2022-12-18T01:42:37;100907.78;;;-5.40;74.04
43115;BME280;28727;50.068;14.452;2022-12-18T01:47:50;100918.06;;;-5.38;74.06
43115;BME280;28727;50.068;14.452;2022-12-18T01:50:38;100912.84;;;-5.35;74.31
43115;BME280;28727;50.068;14.452;2022-12-18T01:53:20;100906.81;;;-5.34;74.14
43115;BME280;28727;50.068;14.452;2022-12-18T01:55:55;100911.06;;;-5.31;74.26
43115;BME280;28727;50.068;14.452;2022-12-18T01:58:38;100898.13;;;-5.28;74.66
43115;BME280;28727;50.068;14.452;2022-12-18T02:01:12;100902.34;;;-5.24;74.67
43115;BME280;28727;50.068;14.452;2022-12-18T02:03:44;100903.16;;;-5.24;74.65
43115;BME280;28727;50.068;14.452;2022-12-18T02:06:21;100903.16;;;-5.22;75.20
43115;BME280;28727;50.068;14.452;2022-12-18T02:09:18;100907.50;;;-5.24;74.37
43115;BME280;28727;50.068;14.452;2022-12-18T02:12:15;100920.75;;;-5.44;74.80
43115;BME280;28727;50.068;14.452;2022-12-18T02:17:39;100935.16;;;-5.36;74.92
43115;BME280;28727;50.068;14.452;2022-12-18T02:20:28;100937.66;;;-5.31;74.56
43115;BME280;28727;50.068;14.452;2022-12-18T02:26:16;100941.28;;;-5.41;73.74
43115;BME280;28727;50.068;14.452;2022-12-18T02:29:03;100949.06;;;-5.44;73.85
43115;BME280;28727;50.068;14.452;2022-12-18T02:31:47;100950.81;;;-5.46;73.72
43115;BME280;28727;50.068;14.452;2022-12-18T02:34:26;100943.94;;;-5.44;73.86
43115;BME280;28727;50.068;14.452;2022-12-18T02:37:02;100939.53;;;-5.39;73.54
43115;BME280;28727;50.068;14.452;2022-12-18T02:39:38;100938.66;;;-5.38;73.80
43115;BME280;28727;50.068;14.452;2022-12-18T02:42:16;100948.00;;;-5.32;73.88
43115;BME280;28727;50.068;14.452;2022-12-18T02:44:50;100941.88;;;-5.27;73.62
43115;BME280;28727;50.068;14.452;2022-12-18T02:47:30;100938.34;;;-5.23;73.63
43115;BME280;28727;50.068;14.452;2022-12-18T02:58:57;100937.53;;;-5.25;74.37
43115;BME280;28727;50.068;14.452;2022-12-18T03:01:52;100946.00;;;-5.18;73.91
43115;BME280;28727;50.068;14.452;2022-12-18T03:04:33;100951.06;;;-5.14;73.43
43115;BME280;28727;50.068;14.452;2022-12-18T03:07:12;100953.56;;;-5.11;73.50
43115;BME280;28727;50.068;14.452;2022-12-18T03:09:50;100956.97;;;-5.10;73.08
43115;BME280;28727;50.068;14.452;2022-12-18T03:12:37;100965.69;;;-5.17;73.18
43115;BME280;28727;50.068;14.452;2022-12-18T03:15:25;100957.13;;;-5.18;72.93
43115;BME280;28727;50.068;14.452;2022-12-18T03:18:13;100952.69;;;-5.11;72.83
43115;BME280;28727;50.068;14.452;2022-12-18T03:20:49;100956.94;;;-5.09;72.82
43115;BME280;28727;50.068;14.452;2022-12-18T03:23:27;100957.81;;;-5.08;72.24
43115;BME280;28727;50.068;14.452;2022-12-18T03:26:08;100967.19;;;-5.06;72.49
43115;BME280;28727;50.068;14.452;2022-12-18T03:28:47;100968.00;;;-5.04;72.02
43115;BME280;28727;50.068;14.452;2022-12-18T03:31:23;100974.97;;;-5.09;72.12
43115;BME280;28727;50.068;14.452;2022-12-18T03:34:00;100969.84;;;-5.09;72.55
43115;BME280;28727;50.068;14.452;2022-12-18T03:36:42;100973.16;;;-5.04;72.50
43115;BME280;28727;50.068;14.452;2022-12-18T03:39:19;100963.00;;;-5.11;72.39
43115;BME280;28727;50.068;14.452;2022-12-18T03:45:26;100972.56;;;-5.18;72.28
43115;BME280;28727;50.068;14.452;2022-12-18T03:51:05;100977.59;;;-5.10;72.30
43115;BME280;28727;50.068;14.452;2022-12-18T03:53:52;100979.31;;;-5.12;72.27
43115;BME280;28727;50.068;14.452;2022-12-18T03:56:35;100986.94;;;-5.06;72.25
43115;BME280;28727;50.068;14.452;2022-12-18T03:59:10;100988.63;;;-5.05;72.09
43115;BME280;28727;50.068;14.452;2022-12-18T04:01:49;100985.16;;;-5.03;71.86
43115;BME280;28727;50.068;14.452;2022-12-18T04:04:24;100988.50;;;-4.99;71.71
43115;BME280;28727;50.068;14.452;2022-12-18T04:07:00;100999.56;;;-4.94;71.67
43115;BME280;28727;50.068;14.452;2022-12-18T04:09:34;100990.13;;;-4.93;71.53
43115;BME280;28727;50.068;14.452;2022-12-18T04:12:10;100992.63;;;-4.89;70.93
43115;BME280;28727;50.068;14.452;2022-12-18T04:14:42;100991.78;;;-4.89;71.28
43115;BME280;28727;50.068;14.452;2022-12-18T04:17:13;100992.75;;;-4.95;71.36
43115;BME280;28727;50.068;14.452;2022-12-18T04:19:45;100988.38;;;-4.91;71.50
43115;BME280;28727;50.068;14.452;2022-12-18T04:22:17;100991.69;;;-4.86;71.68
43115;BME280;28727;50.068;14.452;2022-12-18T04:24:54;101001.91;;;-4.82;71.59
43115;BME280;28727;50.068;14.452;2022-12-18T04:27:34;101008.72;;;-4.79;71.67
43115;BME280;28727;50.068;14.452;2022-12-18T04:30:08;100997.56;;;-4.78;71.70
43115;BME280;28727;50.068;14.452;2022-12-18T04:32:40;101000.06;;;-4.77;71.80
43115;BME280;28727;50.068;14.452;2022-12-18T04:35:18;101013.75;;;-4.72;72.71
43115;BME280;28727;50.068;14.452;2022-12-18T04:37:50;101016.22;;;-4.67;72.18
43115;BME280;28727;50.068;14.452;2022-12-18T04:40:22;101010.13;;;-4.65;72.14
43115;BME280;28727;50.068;14.452;2022-12-18T04:42:55;101008.31;;;-4.60;72.28
43115;BME280;28727;50.068;14.452;2022-12-18T04:45:26;101011.66;;;-4.56;71.94
43115;BME280;28727;50.068;14.452;2022-12-18T04:47:59;101001.28;;;-4.53;72.30
43115;BME280;28727;50.068;14.452;2022-12-18T04:50:31;100996.06;;;-4.50;72.20
43115;BME280;28727;50.068;14.452;2022-12-18T04:53:02;101006.31;;;-4.47;72.36
43115;BME280;28727;50.068;14.452;2022-12-18T04:55:34;100997.69;;;-4.46;72.41
43115;BME280;28727;50.068;14.452;2022-12-18T04:58:06;101000.25;;;-4.44;72.21
43115;BME280;28727;50.068;14.452;2022-12-18T05:00:37;101004.41;;;-4.39;72.37
43115;BME280;28727;50.068;14.452;2022-12-18T05:03:09;101002.56;;;-4.32;72.45
43115;BME280;28727;50.068;14.452;2022-12-18T05:05:41;101009.22;;;-4.24;72.33
43115;BME280;28727;50.068;14.452;2022-12-18T05:08:12;101002.25;;;-4.19;72.22
43115;BME280;28727;50.068;14.452;2022-12-18T05:10:44;100998.69;;;-4.15;71.95
43115;BME280;28727;50.068;14.452;2022-12-18T05:13:16;101011.59;;;-4.15;71.97
43115;BME280;28727;50.068;14.452;2022-12-18T05:15:51;101015.16;;;-4.20;72.04
43115;BME280;28727;50.068;14.452;2022-12-18T05:18:24;101021.19;;;-4.21;72.05
43115;BME280;28727;50.068;14.452;2022-12-18T05:20:56;101023.94;;;-4.29;72.15
43115;BME280;28727;50.068;14.452;2022-12-18T05:23:28;101030.78;;;-4.26;72.46
43115;BME280;28727;50.068;14.452;2022-12-18T05:26:01;101031.53;;;-4.23;72.44
43115;BME280;28727;50.068;14.452;2022-12-18T05:28:34;101031.38;;;-4.15;72.36
43115;BME280;28727;50.068;14.452;2022-12-18T05:31:06;101034.78;;;-4.13;72.14
43115;BME280;28727;50.068;14.452;2022-12-18T05:33:39;101042.47;;;-4.12;72.16
43115;BME280;28727;50.068;14.452;2022-12-18T05:36:11;101038.16;;;-4.11;72.17
43115;BME280;28727;50.068;14.452;2022-12-18T05:38:43;101038.13;;;-4.09;72.00
43115;BME280;28727;50.068;14.452;2022-12-18T05:41:14;101042.44;;;-4.10;71.89
43115;BME280;28727;50.068;14.452;2022-12-18T05:43:46;101043.56;;;-4.22;71.92
43115;BME280;28727;50.068;14.452;2022-12-18T05:46:18;101041.13;;;-4.28;72.23
43115;BME280;28727;50.068;14.452;2022-12-18T05:48:50;101050.56;;;-4.27;72.18
43115;BME280;28727;50.068;14.452;2022-12-18T05:51:22;101055.13;;;-4.38;72.01
43115;BME280;28727;50.068;14.452;2022-12-18T05:53:54;101060.44;;;-4.47;72.69
43115;BME280;28727;50.068;14.452;2022-12-18T05:56:26;101070.72;;;-4.44;72.83
43115;BME280;28727;50.068;14.452;2022-12-18T05:58:57;101060.28;;;-4.39;72.51
43115;BME280;28727;50.068;14.452;2022-12-18T06:01:29;101070.81;;;-4.48;73.00
43115;BME280;28727;50.068;14.452;2022-12-18T06:04:01;101067.31;;;-4.47;73.03
43115;BME280;28727;50.068;14.452;2022-12-18T06:06:33;101077.75;;;-4.52;73.41
43115;BME280;28727;50.068;14.452;2022-12-18T06:09:06;101082.84;;;-4.49;73.85
43115;BME280;28727;50.068;14.452;2022-12-18T06:11:40;101087.09;;;-4.46;73.45
43115;BME280;28727;50.068;14.452;2022-12-18T06:14:12;101083.84;;;-4.56;73.28
43115;BME280;28727;50.068;14.452;2022-12-18T06:16:44;101084.75;;;-4.59;74.22
43115;BME280;28727;50.068;14.452;2022-12-18T06:19:16;101081.28;;;-4.56;73.96
43115;BME280;28727;50.068;14.452;2022-12-18T06:21:48;101089.75;;;-4.51;74.08
43115;BME280;28727;50.068;14.452;2022-12-18T06:24:20;101086.22;;;-4.47;73.90
43115;BME280;28727;50.068;14.452;2022-12-18T06:26:52;101087.78;;;-4.38;74.18
43115;BME280;28727;50.068;14.452;2022-12-18T06:29:23;101095.38;;;-4.32;73.60
43115;BME280;28727;50.068;14.452;2022-12-18T06:31:55;101096.28;;;-4.35;73.45
43115;BME280;28727;50.068;14.452;2022-12-18T06:34:27;101098.09;;;-4.38;73.94
43115;BME280;28727;50.068;14.452;2022-12-18T06:36:58;101098.94;;;-4.38;74.07
43115;BME280;28727;50.068;14.452;2022-12-18T06:39:30;101097.25;;;-4.39;74.04
43115;BME280;28727;50.068;14.452;2022-12-18T06:42:02;101107.63;;;-4.42;74.15
43115;BME280;28727;50.068;14.452;2022-12-18T06:44:34;101118.91;;;-4.47;74.32
43115;BME280;28727;50.068;14.452;2022-12-18T06:47:10;101123.31;;;-4.53;74.11
43115;BME280;28727;50.068;14.452;2022-12-18T06:49:41;101125.97;;;-4.56;75.24
43115;BME280;28727;50.068;14.452;2022-12-18T06:52:15;101132.75;;;-4.51;75.16
43115;BME280;28727;50.068;14.452;2022-12-18T06:54:46;101126.81;;;-4.55;75.48
43115;BME280;28727;50.068;14.452;2022-12-18T06:57:18;101137.28;;;-4.64;76.07
43115;BME280;28727;50.068;14.452;2022-12-18T06:59:50;101144.94;;;-4.60;76.09
43115;BME280;28727;50.068;14.452;2022-12-18T07:02:21;101146.59;;;-4.57;76.49
43115;BME280;28727;50.068;14.452;2022-12-18T07:04:53;101148.31;;;-4.56;76.33
43115;BME280;28727;50.068;14.452;2022-12-18T07:07:25;101159.41;;;-4.53;76.09
43115;BME280;28727;50.068;14.452;2022-12-18T07:09:56;101152.56;;;-4.53;75.99
43115;BME280;28727;50.068;14.452;2022-12-18T07:12:28;101159.44;;;-4.54;75.93
43115;BME280;28727;50.068;14.452;2022-12-18T07:14:59;101159.63;;;-4.65;76.18
43115;BME280;28727;50.068;14.452;2022-12-18T07:17:31;101164.06;;;-4.71;76.84
43115;BME280;28727;50.068;14.452;2022-12-18T07:20:03;101164.84;;;-4.68;76.90
43115;BME280;28727;50.068;14.452;2022-12-18T07:22:35;101167.47;;;-4.69;76.67
43115;BME280;28727;50.068;14.452;2022-12-18T07:25:07;101167.47;;;-4.71;76.98
43115;BME280;28727;50.068;14.452;2022-12-18T07:27:38;101163.16;;;-4.69;76.19
43115;BME280;28727;50.068;14.452;2022-12-18T07:30:11;101166.75;;;-4.77;77.09
43115;BME280;28727;50.068;14.452;2022-12-18T07:32:45;101169.34;;;-4.77;77.02
43115;BME280;28727;50.068;14.452;2022-12-18T07:35:17;101176.25;;;-4.81;77.65
43115;BME280;28727;50.068;14.452;2022-12-18T07:37:55;101189.88;;;-4.73;77.28
43115;BME280;28727;50.068;14.452;2022-12-18T07:40:26;101189.97;;;-4.77;77.05
43115;BME280;28727;50.068;14.452;2022-12-18T07:42:58;101186.59;;;-4.82;77.24
43115;BME280;28727;50.068;14.452;2022-12-18T07:45:32;101185.88;;;-4.90;77.95
43115;BME280;28727;50.068;14.452;2022-12-18T07:48:04;101189.41;;;-4.96;77.65
43115;BME280;28727;50.068;14.452;2022-12-18T07:50:36;101201.66;;;-5.09;78.02
43115;BME280;28727;50.068;14.452;2022-12-18T07:53:11;101198.13;;;-5.03;77.78
43115;BME280;28727;50.068;14.452;2022-12-18T07:55:43;101191.34;;;-5.09;78.19
43115;BME280;28727;50.068;14.452;2022-12-18T07:58:35;101213.72;;;-5.12;78.63
43115;BME280;28727;50.068;14.452;2022-12-18T08:01:10;101206.81;;;-5.10;78.69
43115;BME280;28727;50.068;14.452;2022-12-18T08:03:43;101207.63;;;-5.07;79.13
43115;BME280;28727;50.068;14.452;2022-12-18T08:06:14;101212.63;;;-4.98;78.37
43115;BME280;28727;50.068;14.452;2022-12-18T08:08:52;101209.22;;;-5.00;77.84
43115;BME280;28727;50.068;14.452;2022-12-18T08:11:26;101203.28;;;-5.05;77.69
43115;BME280;28727;50.068;14.452;2022-12-18T08:13:58;101206.59;;;-4.97;77.70
43115;BME280;28727;50.068;14.452;2022-12-18T08:16:30;101215.97;;;-4.92;77.25
43115;BME280;28727;50.068;14.452;2022-12-18T08:19:02;101211.75;;;-4.95;77.29
43115;BME280;28727;50.068;14.452;2022-12-18T08:21:34;101209.13;;;-4.93;77.17
43115;BME280;28727;50.068;14.452;2022-12-18T08:24:06;101202.13;;;-4.85;76.83
43115;BME280;28727;50.068;14.452;2022-12-18T08:26:38;101202.00;;;-4.78;76.75
43115;BME280;28727;50.068;14.452;2022-12-18T08:29:10;101195.13;;;-4.77;76.38
43115;BME280;28727;50.068;14.452;2022-12-18T08:31:42;101201.09;;;-4.77;76.26
43115;BME280;28727;50.068;14.452;2022-12-18T08:34:16;101207.81;;;-4.68;76.41
43115;BME280;28727;50.068;14.452;2022-12-18T08:36:52;101203.34;;;-4.59;76.16
43115;BME280;28727;50.068;14.452;2022-12-18T08:39:23;101210.03;;;-4.48;75.75
43115;BME280;28727;50.068;14.452;2022-12-18T08:41:55;101214.41;;;-4.52;75.97
43115;BME280;28727;50.068;14.452;2022-12-18T08:44:45;101217.91;;;-4.55;75.91
43115;BME280;28727;50.068;14.452;2022-12-18T08:47:19;101212.66;;;-4.51;76.06
43115;BME280;28727;50.068;14.452;2022-12-18T08:49:53;101216.00;;;-4.46;75.86
43115;BME280;28727;50.068;14.452;2022-12-18T08:52:25;101212.69;;;-4.53;75.42
43115;BME280;28727;50.068;14.452;2022-12-18T08:54:56;101230.72;;;-4.51;75.66
43115;BME280;28727;50.068;14.452;2022-12-18T08:57:28;101219.72;;;-4.60;75.56
43115;BME280;28727;50.068;14.452;2022-12-18T09:00:00;101221.25;;;-4.51;75.28
43115;BME280;28727;50.068;14.452;2022-12-18T09:02:34;101222.19;;;-4.55;75.67
43115;BME280;28727;50.068;14.452;2022-12-18T09:05:06;101223.00;;;-4.53;75.54
43115;BME280;28727;50.068;14.452;2022-12-18T09:07:38;101222.09;;;-4.50;75.62
43115;BME280;28727;50.068;14.452;2022-12-18T09:10:09;101229.19;;;-4.62;74.83
43115;BME280;28727;50.068;14.452;2022-12-18T09:12:41;101224.13;;;-4.66;75.22
43115;BME280;28727;50.068;14.452;2022-12-18T09:15:13;101218.97;;;-4.66;75.25
43115;BME280;28727;50.068;14.452;2022-12-18T09:17:44;101208.03;;;-4.79;75.19
43115;BME280;28727;50.068;14.452;2022-12-18T09:20:16;101211.75;;;-4.97;75.64
43115;BME280;28727;50.068;14.452;2022-12-18T09:22:48;101218.66;;;-5.00;75.92
43115;BME280;28727;50.068;14.452;2022-12-18T09:25:20;101212.63;;;-4.98;75.72
43115;BME280;28727;50.068;14.452;2022-12-18T09:27:52;101228.84;;;-4.91;75.28
43115;BME280;28727;50.068;14.452;2022-12-18T09:30:24;101224.78;;;-5.06;75.47
43115;BME280;28727;50.068;14.452;2022-12-18T09:32:56;101216.09;;;-5.00;75.50
43115;BME280;28727;50.068;14.452;2022-12-18T09:35:27;101225.78;;;-5.13;75.04
43115;BME280;28727;50.068;14.452;2022-12-18T09:37:59;101219.91;;;-5.24;75.92
43115;BME280;28727;50.068;14.452;2022-12-18T09:40:35;101227.50;;;-5.13;76.03
43115;BME280;28727;50.068;14.452;2022-12-18T09:43:17;101230.81;;;-5.07;75.34
43115;BME280;28727;50.068;14.452;2022-12-18T09:45:59;101234.28;;;-5.09;75.71
43115;BME280;28727;50.068;14.452;2022-12-18T09:48:39;101251.38;;;-5.05;75.45
43115;BME280;28727;50.068;14.452;2022-12-18T09:51:17;101254.81;;;-5.03;75.29
43115;BME280;28727;50.068;14.452;2022-12-18T09:53:55;101266.00;;;-5.06;75.05
43115;BME280;28727;50.068;14.452;2022-12-18T09:56:34;101271.22;;;-5.10;76.81
43115;BME280;28727;50.068;14.452;2022-12-18T09:59:19;101268.84;;;-4.69;75.91
43115;BME280;28727;50.068;14.452;2022-12-18T10:01:52;101269.66;;;-4.67;74.91
43115;BME280;28727;50.068;14.452;2022-12-18T10:04:25;101281.59;;;-4.60;74.10
43115;BME280;28727;50.068;14.452;2022-12-18T10:07:21;101267.66;;;-4.51;73.60
43115;BME280;28727;50.068;14.452;2022-12-18T10:10:29;101265.09;;;-4.51;73.00
43115;BME280;28727;50.068;14.452;2022-12-18T10:13:26;101264.09;;;-4.42;73.23
43115;BME280;28727;50.068;14.452;2022-12-18T10:16:25;101258.03;;;-4.41;72.54
43115;BME280;28727;50.068;14.452;2022-12-18T10:19:47;101253.88;;;-4.48;72.90
43115;BME280;28727;50.068;14.452;2022-12-18T10:24:44;101243.63;;;-4.53;73.04
43115;BME280;28727;50.068;14.452;2022-12-18T10:27:25;101245.38;;;-4.53;72.76
43115;BME280;28727;50.068;14.452;2022-12-18T10:29:58;101239.31;;;-4.53;72.67
43115;BME280;28727;50.068;14.452;2022-12-18T10:32:30;101235.00;;;-4.50;72.45
43115;BME280;28727;50.068;14.452;2022-12-18T10:35:02;101230.72;;;-4.53;72.52
43115;BME280;28727;50.068;14.452;2022-12-18T10:37:34;101223.84;;;-4.51;72.31
43115;BME280;28727;50.068;14.452;2022-12-18T10:42:40;101215.16;;;-4.47;71.80
43115;BME280;28727;50.068;14.452;2022-12-18T10:45:16;101222.94;;;-4.48;71.94
43115;BME280;28727;50.068;14.452;2022-12-18T10:47:49;101209.19;;;-4.49;71.88
43115;BME280;28727;50.068;14.452;2022-12-18T10:50:34;101206.53;;;-4.44;71.86
43115;BME280;28727;50.068;14.452;2022-12-18T10:53:29;101194.59;;;-4.50;71.47
43115;BME280;28727;50.068;14.452;2022-12-18T10:56:04;101193.75;;;-4.52;71.25
43115;BME280;28727;50.068;14.452;2022-12-18T10:58:40;101192.78;;;-4.45;71.64
43115;BME280;28727;50.068;14.452;2022-12-18T11:01:15;101185.91;;;-4.46;71.67
43115;BME280;28727;50.068;14.452;2022-12-18T11:06:23;101188.69;;;-4.57;71.65
43115;BME280;28727;50.068;14.452;2022-12-18T11:09:01;101188.72;;;-4.58;71.41
43115;BME280;28727;50.068;14.452;2022-12-18T11:11:49;101185.34;;;-4.60;71.72
43115;BME280;28727;50.068;14.452;2022-12-18T11:16:58;101181.97;;;-4.64;71.37
43115;BME280;28727;50.068;14.452;2022-12-18T11:19:59;101183.44;;;-4.52;71.54
43115;BME280;28727;50.068;14.452;2022-12-18T11:22:33;101179.88;;;-4.45;71.30
43115;BME280;28727;50.068;14.452;2022-12-18T11:28:37;101181.50;;;-4.41;70.92
43115;BME280;28727;50.068;14.452;2022-12-18T11:31:21;101178.91;;;-4.38;70.70
43115;BME280;28727;50.068;14.452;2022-12-18T11:34:01;101184.06;;;-4.38;71.02
43115;BME280;28727;50.068;14.452;2022-12-18T11:36:54;101180.59;;;-4.37;70.77
43115;BME280;28727;50.068;14.452;2022-12-18T11:39:52;101177.06;;;-4.33;70.74
43115;BME280;28727;50.068;14.452;2022-12-18T11:42:39;101179.44;;;-4.24;70.61
43115;BME280;28727;50.068;14.452;2022-12-18T11:45:27;101170.09;;;-4.29;70.65
43115;BME280;28727;50.068;14.452;2022-12-18T11:50:53;101187.41;;;-4.34;70.31
43115;BME280;28727;50.068;14.452;2022-12-18T11:53:26;101188.34;;;-4.37;70.68
43115;BME280;28727;50.068;14.452;2022-12-18T11:56:32;101184.19;;;-4.45;70.56
43115;BME280;28727;50.068;14.452;2022-12-18T11:59:15;101186.63;;;-4.38;70.50
43115;BME280;28727;50.068;14.452;2022-12-18T12:07:42;101182.88;;;-4.23;70.52
43115;BME280;28727;50.068;14.452;2022-12-18T12:13:17;101187.13;;;-4.19;69.84
43115;BME280;28727;50.068;14.452;2022-12-18T12:22:12;101185.44;;;-4.22;69.30
43115;BME280;28727;50.068;14.452;2022-12-18T12:30:22;101176.47;;;-4.04;69.64
43115;BME280;28727;50.068;14.452;2022-12-18T12:33:26;101184.25;;;-4.05;69.52
43115;BME280;28727;50.068;14.452;2022-12-18T12:36:22;101189.38;;;-4.04;70.33
43115;BME280;28727;50.068;14.452;2022-12-18T12:39:01;101194.66;;;-3.70;71.22
43115;BME280;28727;50.068;14.452;2022-12-18T12:41:37;101186.38;;;-3.46;71.17
43115;BME280;28727;50.068;14.452;2022-12-18T12:44:33;101184.34;;;-3.33;68.30
43115;BME280;28727;50.068;14.452;2022-12-18T12:47:14;101188.66;;;-3.34;67.79
43115;BME280;28727;50.068;14.452;2022-12-18T12:49:49;101193.91;;;-3.37;67.69
43115;BME280;28727;50.068;14.452;2022-12-18T12:52:33;101200.72;;;-3.34;68.09
43115;BME280;28727;50.068;14.452;2022-12-18T12:55:16;101196.06;;;-3.18;72.19
43115;BME280;28727;50.068;14.452;2022-12-18T12:58:15;101198.41;;;-2.75;70.22
43115;BME280;28727;50.068;14.452;2022-12-18T13:01:13;101202.47;;;-2.65;68.93
43115;BME280;28727;50.068;14.452;2022-12-18T13:04:02;101204.91;;;-2.59;67.66
43115;BME280;28727;50.068;14.452;2022-12-18T13:07:01;101209.94;;;-2.55;67.65
43115;BME280;28727;50.068;14.452;2022-12-18T13:15:46;101203.72;;;-2.17;66.27
43115;BME280;28727;50.068;14.452;2022-12-18T13:18:23;101199.16;;;-2.38;66.06
43115;BME280;28727;50.068;14.452;2022-12-18T13:23:37;101192.16;;;-2.67;65.77
43115;BME280;28727;50.068;14.452;2022-12-18T13:40:46;101193.56;;;-4.00;70.58
43115;BME280;28727;50.068;14.452;2022-12-18T13:46:17;101190.03;;;-3.94;71.75
43115;BME280;28727;50.068;14.452;2022-12-18T13:48:57;101177.44;;;-4.08;71.76
43115;BME280;28727;50.068;14.452;2022-12-18T13:51:32;101193.50;;;-4.38;72.45
43115;BME280;28727;50.068;14.452;2022-12-18T13:56:57;101193.19;;;-4.66;72.60
43115;BME280;28727;50.068;14.452;2022-12-18T13:59:39;101197.72;;;-4.80;73.01
43115;BME280;28727;50.068;14.452;2022-12-18T14:02:22;101196.13;;;-4.87;73.38
43115;BME280;28727;50.068;14.452;2022-12-18T14:04:54;101206.59;;;-4.95;74.04
43115;BME280;28727;50.068;14.452;2022-12-18T14:07:29;101216.00;;;-4.94;74.26
43115;BME280;28727;50.068;14.452;2022-12-18T14:10:12;101215.19;;;-4.98;74.43
43115;BME280;28727;50.068;14.452;2022-12-18T14:13:08;101210.16;;;-5.04;74.59
43115;BME280;28727;50.068;14.452;2022-12-18T14:15:43;101204.22;;;-5.07;74.57
43115;BME280;28727;50.068;14.452;2022-12-18T14:18:24;101217.97;;;-5.10;75.22
43115;BME280;28727;50.068;14.452;2022-12-18T14:20:58;101223.97;;;-5.09;75.07
43115;BME280;28727;50.068;14.452;2022-12-18T14:26:27;101226.66;;;-5.17;74.59
43115;BME280;28727;50.068;14.452;2022-12-18T14:29:19;101212.22;;;-5.25;74.68
43115;BME280;28727;50.068;14.452;2022-12-18T14:34:53;101225.28;;;-5.38;75.53
43115;BME280;28727;50.068;14.452;2022-12-18T14:37:26;101218.34;;;-5.32;76.00
43115;BME280;28727;50.068;14.452;2022-12-18T14:40:00;101220.72;;;-5.19;75.17
43115;BME280;28727;50.068;14.452;2022-12-18T14:42:42;101241.63;;;-5.40;75.25
43115;BME280;28727;50.068;14.452;2022-12-18T14:45:33;101239.22;;;-5.52;75.47
43115;BME280;28727;50.068;14.452;2022-12-18T14:48:17;101239.38;;;-5.63;76.03
43115;BME280;28727;50.068;14.452;2022-12-18T14:50:56;101229.06;;;-5.61;75.88
43115;BME280;28727;50.068;14.452;2022-12-18T14:56:35;101222.22;;;-5.62;75.48
43115;BME280;28727;50.068;14.452;2022-12-18T14:59:17;101225.47;;;-5.50;81.26
43115;BME280;28727;50.068;14.452;2022-12-18T15:02:27;101220.75;;;-5.22;77.36
43115;BME280;28727;50.068;14.452;2022-12-18T15:05:05;101233.03;;;-5.41;75.32
43115;BME280;28727;50.068;14.452;2022-12-18T15:07:51;101237.69;;;-5.65;75.14